createdAt,value
2019-05-19T00:00:59.029Z,992.44
2019-05-19T00:01:59.007Z,992.43
2019-05-19T00:02:59.000Z,992.44
2019-05-19T00:03:58.999Z,992.40
2019-05-19T00:04:58.957Z,992.41
2019-05-19T00:05:58.975Z,992.38
2019-05-19T00:06:59.002Z,992.37
2019-05-19T00:07:58.922Z,992.39
2019-05-19T00:08:58.894Z,992.38
2019-05-19T00:09:58.900Z,992.34
2019-05-19T00:10:58.855Z,992.31
2019-05-19T00:11:58.864Z,992.30
2019-05-19T00:12:58.801Z,992.25
2019-05-19T00:13:58.818Z,992.25
2019-05-19T00:14:58.781Z,992.25
2019-05-19T00:15:58.748Z,992.20
2019-05-19T00:16:58.750Z,992.21
2019-05-19T00:17:58.755Z,992.20
2019-05-19T00:18:58.719Z,992.15
2019-05-19T00:19:58.670Z,992.14
2019-05-19T00:20:58.675Z,992.12
2019-05-19T00:21:58.624Z,992.12
2019-05-19T00:22:58.641Z,992.12
2019-05-19T00:23:59.903Z,992.07
2019-05-19T00:24:58.578Z,992.05
2019-05-19T00:25:58.587Z,992.06
2019-05-19T00:26:58.539Z,992.06
2019-05-19T00:27:58.508Z,992.03
2019-05-19T00:28:58.501Z,992.00
2019-05-19T00:29:58.495Z,992.02
2019-05-19T00:30:58.455Z,991.96
2019-05-19T00:31:58.450Z,991.96
2019-05-19T00:32:58.480Z,991.98
2019-05-19T00:33:58.409Z,991.98
2019-05-19T00:34:58.411Z,991.97
2019-05-19T00:35:58.394Z,991.97
2019-05-19T00:36:58.353Z,991.93
2019-05-19T00:37:58.343Z,991.92
2019-05-19T00:38:58.324Z,991.91
2019-05-19T00:39:58.332Z,991.91
2019-05-19T00:40:58.311Z,991.90
2019-05-19T00:41:58.248Z,991.89
2019-05-19T00:42:58.271Z,991.87
2019-05-19T00:43:58.214Z,991.89
2019-05-19T00:44:58.197Z,991.86
2019-05-19T00:45:58.221Z,991.86
2019-05-19T00:46:58.155Z,991.85
2019-05-19T00:47:58.148Z,991.84
2019-05-19T00:48:58.124Z,991.85
2019-05-19T00:49:58.099Z,991.86
2019-05-19T00:50:58.077Z,991.85
2019-05-19T00:51:58.091Z,991.82
2019-05-19T00:52:58.063Z,991.80
2019-05-19T00:53:58.042Z,991.79
2019-05-19T00:54:58.019Z,991.77
2019-05-19T00:55:58.021Z,991.79
2019-05-19T00:56:57.986Z,991.78
2019-05-19T00:57:57.939Z,991.76
2019-05-19T00:58:57.957Z,991.79
2019-05-19T00:59:57.935Z,991.75
2019-05-19T01:00:57.922Z,991.79
2019-05-19T01:01:57.887Z,991.74
2019-05-19T01:02:57.874Z,991.73
2019-05-19T01:03:57.837Z,991.75
2019-05-19T01:04:57.840Z,991.74
2019-05-19T01:05:57.825Z,991.74
2019-05-19T01:06:57.791Z,991.71
2019-05-19T01:07:57.767Z,991.74
2019-05-19T01:08:57.823Z,991.69
2019-05-19T01:09:57.741Z,991.68
2019-05-19T01:10:57.693Z,991.68
2019-05-19T01:11:57.700Z,991.70
2019-05-19T01:12:57.691Z,991.72
2019-05-19T01:13:57.637Z,991.71
2019-05-19T01:14:57.690Z,991.70
2019-05-19T01:15:57.596Z,991.70
2019-05-19T01:16:57.615Z,991.70
2019-05-19T01:17:57.585Z,991.69
2019-05-19T01:18:57.568Z,991.73
2019-05-19T01:19:57.556Z,991.73
2019-05-19T01:20:57.510Z,991.72
2019-05-19T01:21:57.507Z,991.74
2019-05-19T01:22:57.468Z,991.74
2019-05-19T01:23:57.466Z,991.71
2019-05-19T01:24:57.433Z,991.74
2019-05-19T01:25:57.420Z,991.74
2019-05-19T01:26:57.408Z,991.75
2019-05-19T01:27:57.416Z,991.74
2019-05-19T01:28:57.373Z,991.74
2019-05-19T01:29:57.363Z,991.71
2019-05-19T01:30:57.393Z,991.75
2019-05-19T01:31:57.346Z,991.74
2019-05-19T01:32:57.357Z,991.74
2019-05-19T01:33:57.255Z,991.71
2019-05-19T01:34:57.250Z,991.75
2019-05-19T01:35:57.289Z,991.74
2019-05-19T01:36:57.240Z,991.72
2019-05-19T01:37:57.206Z,991.74
2019-05-19T01:38:57.218Z,991.77
2019-05-19T01:39:57.147Z,991.77
2019-05-19T01:40:57.127Z,991.75
2019-05-19T01:41:57.238Z,991.76
2019-05-19T01:42:57.113Z,991.73
2019-05-19T01:43:57.078Z,991.70
2019-05-19T01:44:57.061Z,991.74
2019-05-19T01:45:57.049Z,991.71
2019-05-19T01:46:57.022Z,991.72
2019-05-19T01:47:57.010Z,991.74
2019-05-19T01:48:56.974Z,991.68
2019-05-19T01:50:17.489Z,991.68
2019-05-19T01:52:01.380Z,991.69
2019-05-19T01:53:01.353Z,991.73
2019-05-19T01:54:01.328Z,991.72
2019-05-19T01:55:01.322Z,991.70
2019-05-19T01:56:01.288Z,991.72
2019-05-19T01:57:01.276Z,991.76
2019-05-19T01:58:01.252Z,991.74
2019-05-19T01:59:01.237Z,991.71
2019-05-19T02:00:01.285Z,991.67
2019-05-19T02:01:01.194Z,991.73
2019-05-19T02:02:01.234Z,991.69
2019-05-19T02:03:01.159Z,991.68
2019-05-19T02:04:01.142Z,991.68
2019-05-19T02:05:01.125Z,991.68
2019-05-19T02:06:01.101Z,991.68
2019-05-19T02:07:01.078Z,991.66
2019-05-19T02:08:01.059Z,991.66
2019-05-19T02:09:01.046Z,991.67
2019-05-19T02:10:01.025Z,991.66
2019-05-19T02:11:01.006Z,991.61
2019-05-19T02:12:00.985Z,991.63
2019-05-19T02:13:00.964Z,991.61
2019-05-19T02:14:00.944Z,991.61
2019-05-19T02:15:00.921Z,991.65
2019-05-19T02:16:00.913Z,991.65
2019-05-19T02:17:00.891Z,991.61
2019-05-19T02:18:00.867Z,991.63
2019-05-19T02:19:00.847Z,991.60
2019-05-19T02:20:00.860Z,991.57
2019-05-19T02:21:00.808Z,991.62
2019-05-19T02:22:00.792Z,991.58
2019-05-19T02:23:00.774Z,991.58
2019-05-19T02:24:00.750Z,991.60
2019-05-19T02:25:00.728Z,991.65
2019-05-19T02:26:00.715Z,991.61
2019-05-19T02:27:00.692Z,991.59
2019-05-19T02:28:00.675Z,991.61
2019-05-19T02:29:00.658Z,991.61
2019-05-19T02:30:00.640Z,991.58
2019-05-19T02:31:00.623Z,991.60
2019-05-19T02:32:00.596Z,991.61
2019-05-19T02:33:00.573Z,991.58
2019-05-19T02:34:00.557Z,991.61
2019-05-19T02:35:00.539Z,991.63
2019-05-19T02:36:00.528Z,991.59
2019-05-19T02:37:00.506Z,991.63
2019-05-19T02:38:00.485Z,991.61
2019-05-19T02:39:00.468Z,991.63
2019-05-19T02:40:00.445Z,991.61
2019-05-19T02:41:00.424Z,991.64
2019-05-19T02:42:00.408Z,991.62
2019-05-19T02:43:00.385Z,991.60
2019-05-19T02:44:00.373Z,991.59
2019-05-19T02:45:00.346Z,991.59
2019-05-19T02:46:00.327Z,991.57
2019-05-19T02:47:00.313Z,991.57
2019-05-19T02:48:00.289Z,991.58
2019-05-19T02:49:00.271Z,991.53
2019-05-19T02:50:00.247Z,991.54
2019-05-19T02:51:00.235Z,991.58
2019-05-19T02:52:00.210Z,991.56
2019-05-19T02:53:00.195Z,991.52
2019-05-19T02:54:00.171Z,991.54
2019-05-19T02:55:00.153Z,991.54
2019-05-19T02:56:00.133Z,991.52
2019-05-19T02:57:00.115Z,991.53
2019-05-19T02:58:00.094Z,991.51
2019-05-19T02:59:00.079Z,991.52
2019-05-19T03:00:00.055Z,991.46
2019-05-19T03:01:00.038Z,991.44
2019-05-19T03:02:00.019Z,991.47
2019-05-19T03:03:00.012Z,991.47
2019-05-19T03:03:59.983Z,991.47
2019-05-19T03:04:59.957Z,991.44
2019-05-19T03:05:59.947Z,991.45
2019-05-19T03:06:59.920Z,991.49
2019-05-19T03:07:59.904Z,991.44
2019-05-19T03:08:59.887Z,991.44
2019-05-19T03:09:59.865Z,991.42
2019-05-19T03:10:59.853Z,991.42
2019-05-19T03:11:59.826Z,991.42
2019-05-19T03:12:59.804Z,991.42
2019-05-19T03:13:59.792Z,991.37
2019-05-19T03:14:59.770Z,991.37
2019-05-19T03:15:59.751Z,991.43
2019-05-19T03:16:59.735Z,991.40
2019-05-19T03:17:59.715Z,991.40
2019-05-19T03:18:59.689Z,991.42
2019-05-19T03:19:59.678Z,991.41
2019-05-19T03:21:10.416Z,991.42
2019-05-19T03:21:59.631Z,991.39
2019-05-19T03:22:59.617Z,991.39
2019-05-19T03:23:59.592Z,991.35
2019-05-19T03:24:59.582Z,991.38
2019-05-19T03:25:59.551Z,991.38
2019-05-19T03:26:59.539Z,991.39
2019-05-19T03:27:59.518Z,991.40
2019-05-19T03:28:59.495Z,991.45
2019-05-19T03:29:59.479Z,991.43
2019-05-19T03:30:59.469Z,991.47
2019-05-19T03:31:59.442Z,991.45
2019-05-19T03:32:59.427Z,991.49
2019-05-19T03:33:59.404Z,991.48
2019-05-19T03:34:59.390Z,991.51
2019-05-19T03:35:59.367Z,991.51
2019-05-19T03:36:59.341Z,991.50
2019-05-19T03:37:59.331Z,991.53
2019-05-19T03:38:59.300Z,991.48
2019-05-19T03:39:59.278Z,991.46
2019-05-19T03:40:59.260Z,991.52
2019-05-19T03:41:59.243Z,991.48
2019-05-19T03:42:59.222Z,991.46
2019-05-19T03:43:59.205Z,991.45
2019-05-19T03:44:59.193Z,991.44
2019-05-19T03:45:59.165Z,991.41
2019-05-19T03:46:59.145Z,991.41
2019-05-19T03:47:59.127Z,991.38
2019-05-19T03:48:59.106Z,991.34
2019-05-19T03:49:59.090Z,991.33
2019-05-19T03:50:59.070Z,991.30
2019-05-19T03:51:59.049Z,991.26
2019-05-19T03:52:59.032Z,991.29
2019-05-19T03:53:59.011Z,991.28
2019-05-19T03:54:59.000Z,991.28
2019-05-19T03:55:58.972Z,991.30
2019-05-19T03:56:58.945Z,991.29
2019-05-19T03:57:58.935Z,991.32
2019-05-19T03:58:58.919Z,991.31
2019-05-19T03:59:58.894Z,991.33
2019-05-19T04:00:58.873Z,991.35
2019-05-19T04:01:58.852Z,991.36
2019-05-19T04:02:58.842Z,991.41
2019-05-19T04:03:58.828Z,991.40
2019-05-19T04:04:58.798Z,991.36
2019-05-19T04:05:58.776Z,991.41
2019-05-19T04:06:58.755Z,991.42
2019-05-19T04:07:58.739Z,991.41
2019-05-19T04:08:58.725Z,991.40
2019-05-19T04:09:58.708Z,991.38
2019-05-19T04:10:58.682Z,991.42
2019-05-19T04:11:58.661Z,991.38
2019-05-19T04:12:58.637Z,991.34
2019-05-19T04:13:58.620Z,991.35
2019-05-19T04:14:58.601Z,991.36
2019-05-19T04:15:58.582Z,991.33
2019-05-19T04:16:58.561Z,991.36
2019-05-19T04:17:58.543Z,991.33
2019-05-19T04:18:58.521Z,991.36
2019-05-19T04:19:58.503Z,991.33
2019-05-19T04:20:58.484Z,991.35
2019-05-19T04:21:58.467Z,991.36
2019-05-19T04:22:58.456Z,991.35
2019-05-19T04:23:58.437Z,991.36
2019-05-19T04:24:58.412Z,991.38
2019-05-19T04:25:58.393Z,991.37
2019-05-19T04:26:58.370Z,991.36
2019-05-19T04:27:58.352Z,991.32
2019-05-19T04:28:58.334Z,991.37
2019-05-19T04:29:58.318Z,991.34
2019-05-19T04:30:58.314Z,991.32
2019-05-19T04:31:58.273Z,991.34
2019-05-19T04:32:58.254Z,991.35
2019-05-19T04:33:58.237Z,991.33
2019-05-19T04:34:58.216Z,991.32
2019-05-19T04:35:58.197Z,991.34
2019-05-19T04:36:58.177Z,991.34
2019-05-19T04:37:58.156Z,991.36
2019-05-19T04:38:58.142Z,991.38
2019-05-19T04:39:58.128Z,991.42
2019-05-19T04:40:58.100Z,991.39
2019-05-19T04:41:58.087Z,991.40
2019-05-19T04:42:58.060Z,991.39
2019-05-19T04:43:58.050Z,991.41
2019-05-19T04:44:58.021Z,991.42
2019-05-19T04:45:58.012Z,991.40
2019-05-19T04:46:57.986Z,991.41
2019-05-19T04:47:57.966Z,991.39
2019-05-19T04:48:57.951Z,991.38
2019-05-19T04:49:57.934Z,991.40
2019-05-19T04:50:57.905Z,991.44
2019-05-19T04:52:06.662Z,991.41
2019-05-19T04:52:57.872Z,991.40
2019-05-19T04:53:57.848Z,991.44
2019-05-19T04:54:57.836Z,991.45
2019-05-19T04:55:57.814Z,991.46
2019-05-19T04:56:57.808Z,991.51
2019-05-19T04:57:57.777Z,991.51
2019-05-19T04:58:57.750Z,991.50
2019-05-19T04:59:57.743Z,991.52
2019-05-19T05:00:57.717Z,991.55
2019-05-19T05:01:57.694Z,991.53
2019-05-19T05:02:57.687Z,991.56
2019-05-19T05:03:57.679Z,991.55
2019-05-19T05:04:57.642Z,991.56
2019-05-19T05:05:57.620Z,991.56
2019-05-19T05:06:57.605Z,991.54
2019-05-19T05:07:57.583Z,991.52
2019-05-19T05:08:57.577Z,991.54
2019-05-19T05:09:57.546Z,991.53
2019-05-19T05:10:57.527Z,991.48
2019-05-19T05:11:57.512Z,991.53
2019-05-19T05:12:57.499Z,991.51
2019-05-19T05:13:57.474Z,991.51
2019-05-19T05:14:57.450Z,991.48
2019-05-19T05:15:57.435Z,991.53
2019-05-19T05:16:57.416Z,991.53
2019-05-19T05:17:57.393Z,991.53
2019-05-19T05:18:57.371Z,991.53
2019-05-19T05:19:57.355Z,991.52
2019-05-19T05:20:57.337Z,991.55
2019-05-19T05:21:57.345Z,991.54
2019-05-19T05:22:57.297Z,991.58
2019-05-19T05:23:57.285Z,991.58
2019-05-19T05:24:57.265Z,991.58
2019-05-19T05:25:57.244Z,991.53
2019-05-19T05:26:57.218Z,991.54
2019-05-19T05:27:57.202Z,991.59
2019-05-19T05:28:57.184Z,991.59
2019-05-19T05:29:57.171Z,991.56
2019-05-19T05:30:57.145Z,991.54
2019-05-19T05:31:57.127Z,991.61
2019-05-19T05:32:57.109Z,991.60
2019-05-19T05:33:57.095Z,991.62
2019-05-19T05:34:57.070Z,991.58
2019-05-19T05:35:57.053Z,991.57
2019-05-19T05:36:57.035Z,991.56
2019-05-19T05:37:57.010Z,991.54
2019-05-19T05:38:57.004Z,991.60
2019-05-19T05:39:56.990Z,991.61
2019-05-19T05:40:56.956Z,991.61
2019-05-19T05:41:56.945Z,991.66
2019-05-19T05:42:56.920Z,991.65
2019-05-19T05:43:56.906Z,991.67
2019-05-19T05:44:56.893Z,991.69
2019-05-19T05:45:56.876Z,991.69
2019-05-19T05:46:56.848Z,991.69
2019-05-19T05:47:56.847Z,991.72
2019-05-19T05:48:56.816Z,991.74
2019-05-19T05:49:56.797Z,991.70
2019-05-19T05:50:56.776Z,991.71
2019-05-19T05:51:56.766Z,991.68
2019-05-19T05:52:56.739Z,991.67
2019-05-19T05:53:56.727Z,991.68
2019-05-19T05:54:56.706Z,991.71
2019-05-19T05:55:56.688Z,991.72
2019-05-19T05:56:56.679Z,991.74
2019-05-19T05:57:56.656Z,991.76
2019-05-19T05:58:56.639Z,991.80
2019-05-19T05:59:56.627Z,991.81
2019-05-19T06:00:56.606Z,991.79
2019-05-19T06:01:56.589Z,991.79
2019-05-19T06:02:56.569Z,991.77
2019-05-19T06:03:56.550Z,991.76
2019-05-19T06:04:56.536Z,991.84
2019-05-19T06:05:56.533Z,991.83
2019-05-19T06:06:56.506Z,991.84
2019-05-19T06:07:56.486Z,991.82
2019-05-19T06:08:56.467Z,991.82
2019-05-19T06:09:56.455Z,991.82
2019-05-19T06:10:56.447Z,991.83
2019-05-19T06:11:56.429Z,991.82
2019-05-19T06:12:56.410Z,991.81
2019-05-19T06:13:56.395Z,991.84
2019-05-19T06:14:56.379Z,991.87
2019-05-19T06:15:56.366Z,991.82
2019-05-19T06:16:56.379Z,991.80
2019-05-19T06:17:56.328Z,991.76
2019-05-19T06:18:56.886Z,991.75
2019-05-19T06:19:56.323Z,991.75
2019-05-19T06:20:56.323Z,991.71
2019-05-19T06:21:56.268Z,991.77
2019-05-19T06:22:57.148Z,991.84
2019-05-19T06:23:56.245Z,991.81
2019-05-19T06:24:58.963Z,991.78
2019-05-19T06:25:56.216Z,991.78
2019-05-19T06:26:56.225Z,991.78
2019-05-19T06:27:56.183Z,991.77
2019-05-19T06:28:56.204Z,991.78
2019-05-19T06:29:56.155Z,991.71
2019-05-19T06:30:56.137Z,991.73
2019-05-19T06:31:56.118Z,991.69
2019-05-19T06:32:56.100Z,991.70
2019-05-19T06:33:56.093Z,991.72
2019-05-19T06:34:56.081Z,991.71
2019-05-19T06:35:56.063Z,991.75
2019-05-19T06:36:56.053Z,991.75
2019-05-19T06:37:56.033Z,991.70
2019-05-19T06:38:56.334Z,991.72
2019-05-19T06:39:56.018Z,991.68
2019-05-19T06:40:55.997Z,991.69
2019-05-19T06:41:55.980Z,991.72
2019-05-19T06:42:55.966Z,991.71
2019-05-19T06:43:55.957Z,991.74
2019-05-19T06:44:55.930Z,991.71
2019-05-19T06:45:55.914Z,991.75
2019-05-19T06:46:55.908Z,991.72
2019-05-19T06:47:55.932Z,991.73
2019-05-19T06:48:55.866Z,991.73
2019-05-19T06:49:55.855Z,991.72
2019-05-19T06:50:55.837Z,991.72
2019-05-19T06:51:55.824Z,991.76
2019-05-19T06:53:12.354Z,991.76
2019-05-19T06:53:55.784Z,991.74
2019-05-19T06:54:55.774Z,991.75
2019-05-19T06:55:55.758Z,991.74
2019-05-19T06:56:55.744Z,991.77
2019-05-19T06:57:55.730Z,991.79
2019-05-19T06:58:55.714Z,991.77
2019-05-19T06:59:55.703Z,991.77
2019-05-19T07:00:58.639Z,991.79
2019-05-19T07:01:55.663Z,991.80
2019-05-19T07:02:55.644Z,991.79
2019-05-19T07:03:55.630Z,991.76
2019-05-19T07:04:55.619Z,991.73
2019-05-19T07:05:55.594Z,991.75
2019-05-19T07:06:55.599Z,991.75
2019-05-19T07:07:55.565Z,991.74
2019-05-19T07:08:55.554Z,991.75
2019-05-19T07:09:58.423Z,991.78
2019-05-19T07:10:55.524Z,991.77
2019-05-19T07:11:55.522Z,991.75
2019-05-19T07:12:55.490Z,991.75
2019-05-19T07:13:55.474Z,991.74
2019-05-19T07:14:55.454Z,991.74
2019-05-19T07:15:55.444Z,991.70
2019-05-19T07:16:55.426Z,991.76
2019-05-19T07:17:55.408Z,991.76
2019-05-19T07:18:55.390Z,991.78
2019-05-19T07:19:55.380Z,991.79
2019-05-19T07:20:55.354Z,991.78
2019-05-19T07:21:55.345Z,991.82
2019-05-19T07:22:55.355Z,991.83
2019-05-19T07:23:55.317Z,991.81
2019-05-19T07:24:55.299Z,991.80
2019-05-19T07:25:55.275Z,991.79
2019-05-19T07:26:55.257Z,991.80
2019-05-19T07:27:55.246Z,991.78
2019-05-19T07:28:55.229Z,991.80
2019-05-19T07:29:55.210Z,991.82
2019-05-19T07:30:55.219Z,991.81
2019-05-19T07:31:55.189Z,991.81
2019-05-19T07:32:55.168Z,991.83
2019-05-19T07:33:55.154Z,991.83
2019-05-19T07:34:55.136Z,991.82
2019-05-19T07:35:55.118Z,991.78
2019-05-19T07:36:55.103Z,991.84
2019-05-19T07:37:55.083Z,991.87
2019-05-19T07:38:55.071Z,991.82
2019-05-19T07:39:55.056Z,991.81
2019-05-19T07:40:55.044Z,991.89
2019-05-19T07:41:55.024Z,991.87
2019-05-19T07:42:55.009Z,991.88
2019-05-19T07:43:54.990Z,991.88
2019-05-19T07:44:54.977Z,991.92
2019-05-19T07:45:54.959Z,991.89
2019-05-19T07:46:54.945Z,991.86
2019-05-19T07:47:54.928Z,991.89
2019-05-19T07:48:54.914Z,991.85
2019-05-19T07:49:54.892Z,991.88
2019-05-19T07:50:54.881Z,991.87
2019-05-19T07:51:54.868Z,991.92
2019-05-19T07:52:54.853Z,991.86
2019-05-19T07:53:54.834Z,991.89
2019-05-19T07:54:54.842Z,991.89
2019-05-19T07:55:54.805Z,991.89
2019-05-19T07:56:54.793Z,991.87
2019-05-19T07:57:54.773Z,991.90
2019-05-19T07:58:54.757Z,991.90
2019-05-19T07:59:54.741Z,991.85
2019-05-19T08:00:54.749Z,991.86
2019-05-19T08:01:54.840Z,991.82
2019-05-19T08:02:54.709Z,991.84
2019-05-19T08:03:54.730Z,991.83
2019-05-19T08:04:54.672Z,991.81
2019-05-19T08:05:56.981Z,991.82
2019-05-19T08:06:54.677Z,991.82
2019-05-19T08:07:54.725Z,991.83
2019-05-19T08:08:54.615Z,991.84
2019-05-19T08:09:54.676Z,991.81
2019-05-19T08:10:54.581Z,991.83
2019-05-19T08:11:54.562Z,991.81
2019-05-19T08:12:54.555Z,991.81
2019-05-19T08:13:54.540Z,991.80
2019-05-19T08:14:54.555Z,991.78
2019-05-19T08:15:54.497Z,991.83
2019-05-19T08:16:54.622Z,991.82
2019-05-19T08:17:54.469Z,991.81
2019-05-19T08:18:54.529Z,991.78
2019-05-19T08:19:54.473Z,991.79
2019-05-19T08:20:54.501Z,991.82
2019-05-19T08:21:54.511Z,991.78
2019-05-19T08:22:54.418Z,991.81
2019-05-19T08:24:00.602Z,991.84
2019-05-19T08:24:54.372Z,991.83
2019-05-19T08:25:54.608Z,991.82
2019-05-19T08:26:54.450Z,991.81
2019-05-19T08:27:54.339Z,991.87
2019-05-19T08:28:54.339Z,991.85
2019-05-19T08:29:54.310Z,991.82
2019-05-19T08:30:54.365Z,991.87
2019-05-19T08:31:54.334Z,991.86
2019-05-19T08:32:54.282Z,991.87
2019-05-19T08:33:54.273Z,991.89
2019-05-19T08:34:54.240Z,991.92
2019-05-19T08:35:54.217Z,991.90
2019-05-19T08:36:54.300Z,991.85
2019-05-19T08:37:54.190Z,991.85
2019-05-19T08:38:54.176Z,991.85
2019-05-19T08:39:54.162Z,991.86
2019-05-19T08:40:54.169Z,991.82
2019-05-19T08:41:54.131Z,991.86
2019-05-19T08:42:54.119Z,991.81
2019-05-19T08:43:54.129Z,991.86
2019-05-19T08:44:54.107Z,991.83
2019-05-19T08:45:54.083Z,991.81
2019-05-19T08:46:54.081Z,991.77
2019-05-19T08:47:54.114Z,991.80
2019-05-19T08:48:54.050Z,991.77
2019-05-19T08:49:54.030Z,991.77
2019-05-19T08:50:54.004Z,991.76
2019-05-19T08:51:54.033Z,991.80
2019-05-19T08:52:54.001Z,991.76
2019-05-19T08:53:53.983Z,991.76
2019-05-19T08:54:53.956Z,991.79
2019-05-19T08:55:53.947Z,991.73
2019-05-19T08:56:53.941Z,991.72
2019-05-19T08:57:53.930Z,991.67
2019-05-19T08:58:53.923Z,991.68
2019-05-19T08:59:53.884Z,991.67
2019-05-19T09:00:53.901Z,991.69
2019-05-19T09:01:53.858Z,991.67
2019-05-19T09:02:53.855Z,991.64
2019-05-19T09:03:53.904Z,991.63
2019-05-19T09:04:53.853Z,991.65
2019-05-19T09:05:53.838Z,991.67
2019-05-19T09:06:53.790Z,991.63
2019-05-19T09:07:53.808Z,991.68
2019-05-19T09:08:53.769Z,991.64
2019-05-19T09:09:53.789Z,991.65
2019-05-19T09:10:53.756Z,991.66
2019-05-19T09:11:53.728Z,991.69
2019-05-19T09:12:53.715Z,991.67
2019-05-19T09:13:53.711Z,991.69
2019-05-19T09:14:53.699Z,991.64
2019-05-19T09:15:53.690Z,991.67
2019-05-19T09:16:53.662Z,991.65
2019-05-19T09:17:54.268Z,991.63
2019-05-19T09:18:53.644Z,991.63
2019-05-19T09:19:53.612Z,991.67
2019-05-19T09:20:53.603Z,991.62
2019-05-19T09:21:53.655Z,991.60
2019-05-19T09:22:53.589Z,991.59
2019-05-19T09:23:53.574Z,991.61
2019-05-19T09:24:53.560Z,991.62
2019-05-19T09:25:53.546Z,991.59
2019-05-19T09:26:53.537Z,991.61
2019-05-19T09:27:53.575Z,991.59
2019-05-19T09:28:53.495Z,991.60
2019-05-19T09:29:53.486Z,991.58
2019-05-19T09:30:53.506Z,991.56
2019-05-19T09:31:53.493Z,991.59
2019-05-19T09:32:53.445Z,991.58
2019-05-19T09:33:53.431Z,991.63
2019-05-19T09:34:53.417Z,991.60
2019-05-19T09:35:53.436Z,991.58
2019-05-19T09:36:53.385Z,991.54
2019-05-19T09:37:53.375Z,991.55
2019-05-19T09:38:53.385Z,991.53
2019-05-19T09:39:53.365Z,991.57
2019-05-19T09:40:53.333Z,991.53
2019-05-19T09:41:53.329Z,991.53
2019-05-19T09:42:53.420Z,991.53
2019-05-19T09:43:53.336Z,991.53
2019-05-19T09:44:53.298Z,991.51
2019-05-19T09:45:53.266Z,991.51
2019-05-19T09:46:53.271Z,991.50
2019-05-19T09:47:53.247Z,991.50
2019-05-19T09:48:53.231Z,991.47
2019-05-19T09:49:53.283Z,991.46
2019-05-19T09:50:53.228Z,991.44
2019-05-19T09:51:53.226Z,991.48
2019-05-19T09:52:53.213Z,991.43
2019-05-19T09:53:53.199Z,991.44
2019-05-19T09:54:53.194Z,991.40
2019-05-19T09:55:53.142Z,991.47
2019-05-19T09:56:53.129Z,991.40
2019-05-19T09:57:53.142Z,991.39
2019-05-19T09:58:53.121Z,991.41
2019-05-19T09:59:53.102Z,991.41
2019-05-19T10:00:53.130Z,991.41
2019-05-19T10:01:53.061Z,991.36
2019-05-19T10:02:53.073Z,991.36
2019-05-19T10:03:53.040Z,991.42
2019-05-19T10:04:53.055Z,991.34
2019-05-19T10:05:53.004Z,991.35
2019-05-19T10:06:52.998Z,991.38
2019-05-19T10:07:53.046Z,991.36
2019-05-19T10:08:52.998Z,991.37
2019-05-19T10:09:52.985Z,991.36
2019-05-19T10:10:52.949Z,991.32
2019-05-19T10:11:52.933Z,991.33
2019-05-19T10:12:52.923Z,991.33
2019-05-19T10:13:52.998Z,991.33
2019-05-19T10:14:52.907Z,991.30
2019-05-19T10:15:52.881Z,991.35
2019-05-19T10:16:52.871Z,991.31
2019-05-19T10:17:52.943Z,991.31
2019-05-19T10:18:52.840Z,991.31
2019-05-19T10:19:52.845Z,991.28
2019-05-19T10:20:52.833Z,991.26
2019-05-19T10:21:52.825Z,991.31
2019-05-19T10:22:52.820Z,991.28
2019-05-19T10:23:52.789Z,991.33
2019-05-19T10:25:04.421Z,991.27
2019-05-19T10:25:52.814Z,991.29
2019-05-19T10:26:52.761Z,991.28
2019-05-19T10:27:52.752Z,991.23
2019-05-19T10:28:52.714Z,991.27
2019-05-19T10:29:52.694Z,991.24
2019-05-19T10:30:52.740Z,991.25
2019-05-19T10:31:54.522Z,991.25
2019-05-19T10:32:52.707Z,991.24
2019-05-19T10:33:52.646Z,991.25
2019-05-19T10:34:52.644Z,991.19
2019-05-19T10:35:52.618Z,991.20
2019-05-19T10:36:52.611Z,991.21
2019-05-19T10:37:52.602Z,991.24
2019-05-19T10:38:52.620Z,991.23
2019-05-19T10:39:52.567Z,991.20
2019-05-19T10:40:52.571Z,991.24
2019-05-19T10:41:52.543Z,991.21
2019-05-19T10:42:52.541Z,991.16
2019-05-19T10:43:52.517Z,991.20
2019-05-19T10:44:52.559Z,991.19
2019-05-19T10:45:52.586Z,991.20
2019-05-19T10:46:52.477Z,991.18
2019-05-19T10:47:52.498Z,991.16
2019-05-19T10:48:52.469Z,991.17
2019-05-19T10:49:52.437Z,991.20
2019-05-19T10:50:52.444Z,991.17
2019-05-19T10:51:52.426Z,991.11
2019-05-19T10:52:52.457Z,991.10
2019-05-19T10:53:52.412Z,991.15
2019-05-19T10:54:52.403Z,991.14
2019-05-19T10:55:52.386Z,991.17
2019-05-19T10:56:52.357Z,991.12
2019-05-19T10:57:52.370Z,991.13
2019-05-19T10:58:52.477Z,991.10
2019-05-19T10:59:52.421Z,991.10
2019-05-19T11:00:52.306Z,991.14
2019-05-19T11:01:52.310Z,991.12
2019-05-19T11:02:52.342Z,991.11
2019-05-19T11:03:52.283Z,991.08
2019-05-19T11:04:52.270Z,991.13
2019-05-19T11:05:52.268Z,991.12
2019-05-19T11:06:52.262Z,991.10
2019-05-19T11:07:52.265Z,991.09
2019-05-19T11:08:52.325Z,991.05
2019-05-19T11:09:52.199Z,991.04
2019-05-19T11:10:52.221Z,991.06
2019-05-19T11:11:52.270Z,991.08
2019-05-19T11:12:52.256Z,991.07
2019-05-19T11:13:52.154Z,991.09
2019-05-19T11:14:52.213Z,991.06
2019-05-19T11:15:52.129Z,991.05
2019-05-19T11:16:52.115Z,991.04
2019-05-19T11:17:52.116Z,991.04
2019-05-19T11:18:52.124Z,991.02
2019-05-19T11:19:52.090Z,991.04
2019-05-19T11:20:52.087Z,991.03
2019-05-19T11:21:52.071Z,991.05
2019-05-19T11:22:52.069Z,991.03
2019-05-19T11:23:52.151Z,991.03
2019-05-19T11:24:52.104Z,991.05
2019-05-19T11:25:52.092Z,991.07
2019-05-19T11:26:52.005Z,991.05
2019-05-19T11:27:51.988Z,991.04
2019-05-19T11:28:52.002Z,991.07
2019-05-19T11:29:51.986Z,991.07
2019-05-19T11:30:51.956Z,991.03
2019-05-19T11:31:51.930Z,990.97
2019-05-19T11:32:51.922Z,991.01
2019-05-19T11:33:51.912Z,991.03
2019-05-19T11:34:51.966Z,991.00
2019-05-19T11:35:51.916Z,991.01
2019-05-19T11:36:51.873Z,990.98
2019-05-19T11:37:51.887Z,991.01
2019-05-19T11:38:51.966Z,990.98
2019-05-19T11:39:51.869Z,990.99
2019-05-19T11:40:51.855Z,990.98
2019-05-19T11:41:51.851Z,990.98
2019-05-19T11:42:51.853Z,990.97
2019-05-19T11:43:51.817Z,991.00
2019-05-19T11:44:51.795Z,990.98
2019-05-19T11:45:51.775Z,990.97
2019-05-19T11:46:51.777Z,991.00
2019-05-19T11:47:51.767Z,990.97
2019-05-19T11:48:51.761Z,990.96
2019-05-19T11:49:51.755Z,990.98
2019-05-19T11:50:51.709Z,990.96
2019-05-19T11:51:51.793Z,990.98
2019-05-19T11:52:51.704Z,990.95
2019-05-19T11:53:51.690Z,991.01
2019-05-19T11:54:51.683Z,990.96
2019-05-19T11:56:05.482Z,991.02
2019-05-19T11:56:51.636Z,990.98
2019-05-19T11:57:51.659Z,991.00
2019-05-19T11:58:51.658Z,991.04
2019-05-19T11:59:51.612Z,991.05
2019-05-19T12:00:51.602Z,991.03
2019-05-19T12:01:51.586Z,991.08
2019-05-19T12:02:51.588Z,991.08
2019-05-19T12:03:51.565Z,991.06
2019-05-19T12:04:51.553Z,991.09
2019-05-19T12:05:51.561Z,991.11
2019-05-19T12:06:51.536Z,991.11
2019-05-19T12:07:51.619Z,991.11
2019-05-19T12:08:51.548Z,991.10
2019-05-19T12:09:51.526Z,991.09
2019-05-19T12:10:51.507Z,991.11
2019-05-19T12:11:51.470Z,991.12
2019-05-19T12:12:51.474Z,991.15
2019-05-19T12:13:51.464Z,991.14
2019-05-19T12:14:51.471Z,991.15
2019-05-19T12:15:51.441Z,991.16
2019-05-19T12:16:51.595Z,991.12
2019-05-19T12:17:51.425Z,991.09
2019-05-19T12:18:51.394Z,991.09
2019-05-19T12:19:51.461Z,991.02
2019-05-19T12:20:51.390Z,991.08
2019-05-19T12:21:51.354Z,991.07
2019-05-19T12:22:51.392Z,991.07
2019-05-19T12:23:51.332Z,991.11
2019-05-19T12:24:51.371Z,991.04
2019-05-19T12:25:51.315Z,991.07
2019-05-19T12:26:51.329Z,991.06
2019-05-19T12:27:51.332Z,991.03
2019-05-19T12:28:51.339Z,991.01
2019-05-19T12:29:51.308Z,990.93